Horse Creek, California
Current Conditions -  °F | °C
As of 2:53 PM on Friday 19 Dec 2014 (Local Time) from KSIY Reporting Station
Broken Clouds Broken Clouds  
Wind Chill: 50°   Ceiling: 8500
Heat Index: 50°   Visibility: 10mi
Dew Point: 40°   Wind: 10mph
Humidity: 68%   Direction: 190°S
Pressure: 30.04"   Gusts: NA
Location:  41.8705°N, 122.912°W
Report Text: KSIY 192253Z AUTO 19009KT 10SM FEW065 BKN085 10/04 A3004 RMK AO2 SLP183 T01000044
Loading
Personal Weather Stations






























Interactive Weather Map New forecast layout! Learn more

10-Day Weather Forecast

Advertisements
Track Severe Weather on mobile